createdAt,value
2018-10-17T00:00:14.176Z,18.16
2018-10-17T00:02:39.595Z,17.90
2018-10-17T00:05:05.082Z,17.92
2018-10-17T00:07:30.494Z,17.97
2018-10-17T00:09:55.957Z,17.93
2018-10-17T00:12:21.428Z,17.74
2018-10-17T00:15:05.865Z,17.65
2018-10-17T00:17:31.291Z,17.38
2018-10-17T00:19:56.711Z,17.43
2018-10-17T00:22:22.161Z,17.28
2018-10-17T00:24:47.595Z,17.59
2018-10-17T00:27:13.036Z,17.76
2018-10-17T00:29:49.979Z,17.77
2018-10-17T00:34:46.633Z,17.82
2018-10-17T00:37:12.134Z,17.77
2018-10-17T00:39:37.609Z,17.77
2018-10-17T00:42:03.075Z,17.66
2018-10-17T00:44:28.493Z,17.38
2018-10-17T00:46:53.963Z,17.08
2018-10-17T00:49:19.396Z,17.52
2018-10-17T00:51:44.832Z,17.60
2018-10-17T00:54:10.280Z,17.65
2018-10-17T00:56:35.700Z,17.68
2018-10-17T01:01:59.852Z,17.47
2018-10-17T01:04:25.277Z,17.35
2018-10-17T01:09:27.416Z,17.23
2018-10-17T01:11:53.117Z,17.47
2018-10-17T01:14:18.535Z,17.48
2018-10-17T01:19:21.487Z,17.31
2018-10-17T01:21:46.932Z,17.27
2018-10-17T01:24:14.814Z,17.19
2018-10-17T01:26:40.226Z,17.16
2018-10-17T01:34:23.065Z,16.85
2018-10-17T01:36:48.480Z,17.07
2018-10-17T01:44:27.572Z,16.87
2018-10-17T01:46:53.312Z,16.89
2018-10-17T01:49:21.506Z,16.84
2018-10-17T01:51:46.942Z,16.95
2018-10-17T01:56:49.237Z,16.69
2018-10-17T02:01:51.616Z,17.04
2018-10-17T02:04:29.006Z,16.91
2018-10-17T02:06:49.217Z,16.78
2018-10-17T02:09:14.633Z,16.71
2018-10-17T02:11:40.318Z,16.80
2018-10-17T02:14:05.949Z,16.83
2018-10-17T02:16:31.419Z,16.63
2018-10-17T02:19:11.756Z,16.72
2018-10-17T02:24:06.581Z,16.62
2018-10-17T02:26:32.030Z,16.70
2018-10-17T02:31:34.410Z,16.52
2018-10-17T02:33:59.918Z,16.41
2018-10-17T02:36:25.353Z,16.31
2018-10-17T02:38:50.776Z,16.53
2018-10-17T02:41:16.274Z,16.55
2018-10-17T02:43:41.644Z,16.68
2018-10-17T02:46:07.604Z,16.48
2018-10-17T02:48:33.031Z,16.58
2018-10-17T02:50:58.468Z,16.57
2018-10-17T02:53:23.933Z,16.72
2018-10-17T02:55:49.382Z,16.67
2018-10-17T02:58:14.897Z,16.67
2018-10-17T03:00:40.326Z,16.69
2018-10-17T03:03:36.250Z,16.40
2018-10-17T03:05:56.836Z,16.32
2018-10-17T03:08:22.279Z,16.16
2018-10-17T03:10:50.510Z,16.19
2018-10-17T03:13:16.024Z,16.41
2018-10-17T03:15:41.471Z,16.29
2018-10-17T03:20:56.861Z,16.34
2018-10-17T03:23:14.472Z,16.22
2018-10-17T03:25:39.901Z,16.30
2018-10-17T03:28:05.645Z,16.25
2018-10-17T03:30:30.997Z,16.32
2018-10-17T03:32:56.479Z,15.61
2018-10-17T03:35:21.899Z,15.77
2018-10-17T03:37:47.310Z,16.16
2018-10-17T03:40:12.787Z,15.46
2018-10-17T03:42:38.348Z,15.92
2018-10-17T03:47:39.896Z,15.88
2018-10-17T03:52:50.306Z,15.77
2018-10-17T03:55:08.756Z,15.71
2018-10-17T03:57:34.099Z,14.98
2018-10-17T03:59:59.530Z,15.04
2018-10-17T04:02:44.009Z,15.58
2018-10-17T04:05:09.719Z,15.60
2018-10-17T04:07:35.225Z,15.35
2018-10-17T04:10:00.670Z,15.12
2018-10-17T04:15:02.337Z,15.39
2018-10-17T04:17:46.816Z,15.50
2018-10-17T04:20:12.246Z,15.68
2018-10-17T04:25:19.583Z,15.46
2018-10-17T04:27:42.841Z,15.46
2018-10-17T04:30:27.886Z,15.25
2018-10-17T04:32:53.317Z,15.20
2018-10-17T04:35:18.797Z,15.35
2018-10-17T04:40:24.326Z,15.25
2018-10-17T04:42:49.922Z,14.81
2018-10-17T04:45:27.190Z,14.54
2018-10-17T04:47:46.554Z,14.57
2018-10-17T04:50:12.550Z,15.00
2018-10-17T04:52:38.090Z,15.15
2018-10-17T04:55:03.563Z,15.16
2018-10-17T04:57:29.000Z,15.21
2018-10-17T04:59:54.537Z,15.34
2018-10-17T05:02:20.027Z,15.20
2018-10-17T05:04:57.156Z,15.28
2018-10-17T05:07:16.507Z,14.63
2018-10-17T05:09:42.015Z,14.96
2018-10-17T05:12:07.527Z,14.92
2018-10-17T05:17:10.457Z,15.08
2018-10-17T05:19:35.847Z,15.20
2018-10-17T05:22:01.326Z,15.28
2018-10-17T05:24:26.779Z,15.23
2018-10-17T05:26:52.217Z,15.19
2018-10-17T05:29:17.680Z,15.16
2018-10-17T05:31:43.110Z,15.19
2018-10-17T05:34:08.573Z,15.27
2018-10-17T05:36:34.031Z,15.38
2018-10-17T05:38:59.509Z,15.28
2018-10-17T05:41:24.951Z,15.34
2018-10-17T05:43:50.412Z,15.36
2018-10-17T05:46:15.880Z,15.37
2018-10-17T05:48:41.304Z,15.21
2018-10-17T05:51:06.842Z,15.19
2018-10-17T05:53:32.285Z,14.98
2018-10-17T05:55:57.722Z,15.31
2018-10-17T06:03:56.482Z,15.14
2018-10-17T06:06:21.937Z,15.17
2018-10-17T06:08:58.818Z,15.00
2018-10-17T06:11:32.014Z,15.10
2018-10-17T06:13:50.211Z,15.09
2018-10-17T06:18:51.878Z,15.17
2018-10-17T06:21:17.254Z,15.18
2018-10-17T06:23:42.738Z,15.22
2018-10-17T06:26:08.176Z,15.13
2018-10-17T06:28:33.596Z,15.09
2018-10-17T06:31:13.699Z,15.19
2018-10-17T06:33:30.104Z,15.29
2018-10-17T06:35:55.577Z,15.12
2018-10-17T06:38:20.999Z,15.27
2018-10-17T06:40:46.418Z,15.37
2018-10-17T06:45:48.743Z,15.27
2018-10-17T06:48:14.238Z,15.28
2018-10-17T06:50:39.675Z,15.07
2018-10-17T06:53:05.263Z,15.10
2018-10-17T06:55:30.616Z,15.18
2018-10-17T06:57:56.043Z,15.04
2018-10-17T07:00:35.076Z,15.18
2018-10-17T07:02:52.785Z,15.01
2018-10-17T07:05:18.426Z,14.84
2018-10-17T07:10:20.340Z,15.34
2018-10-17T07:12:45.847Z,15.25
2018-10-17T07:15:11.324Z,15.25
2018-10-17T07:17:48.854Z,15.28
2018-10-17T07:20:09.217Z,15.31
2018-10-17T07:25:11.306Z,15.35
2018-10-17T07:27:55.667Z,15.54
2018-10-17T07:30:21.137Z,15.58
2018-10-17T07:32:46.623Z,15.76
2018-10-17T07:37:48.232Z,15.81
2018-10-17T07:40:25.212Z,15.95
2018-10-17T07:42:44.725Z,15.61
2018-10-17T07:45:10.168Z,16.22
2018-10-17T07:47:35.649Z,16.25
2018-10-17T07:50:01.070Z,16.26
2018-10-17T07:52:26.494Z,16.40
2018-10-17T07:54:51.969Z,16.64
2018-10-17T07:57:17.428Z,16.56
2018-10-17T07:59:42.955Z,16.58
2018-10-17T08:02:08.701Z,16.87
2018-10-17T15:26:07.100Z,30.12
2018-10-17T15:31:14.817Z,29.64
2018-10-17T15:33:40.230Z,29.50
2018-10-17T15:36:05.857Z,28.95
2018-10-17T15:38:31.130Z,28.70
2018-10-17T15:40:56.556Z,28.56
2018-10-17T15:43:22.052Z,28.37
2018-10-17T15:45:47.442Z,28.37
2018-10-17T15:48:12.993Z,28.00
2018-10-17T15:50:38.391Z,27.99
2018-10-17T15:53:03.930Z,27.80
2018-10-17T15:55:29.308Z,27.33
2018-10-17T16:00:43.168Z,26.98
2018-10-17T16:03:08.648Z,27.06
2018-10-17T16:10:54.904Z,26.73
2018-10-17T16:13:32.108Z,26.15
2018-10-17T16:15:51.248Z,26.11
2018-10-17T16:18:28.296Z,25.71
2018-10-17T16:20:47.694Z,25.80
2018-10-17T16:25:49.822Z,25.76
2018-10-17T16:28:15.297Z,25.60
2018-10-17T16:30:40.895Z,25.39
2018-10-17T16:33:06.220Z,25.32
2018-10-17T16:35:31.643Z,25.36
2018-10-17T16:37:57.122Z,25.23
2018-10-17T16:40:22.598Z,25.37
2018-10-17T16:42:48.031Z,25.14
2018-10-17T16:45:13.475Z,24.93
2018-10-17T16:47:39.038Z,24.78
2018-10-17T16:50:04.474Z,24.48
2018-10-17T16:52:29.812Z,24.56
2018-10-17T16:55:06.954Z,24.27
2018-10-17T16:57:46.795Z,24.27
2018-10-17T17:00:03.498Z,24.20
2018-10-17T17:02:28.949Z,24.14
2018-10-17T17:05:09.090Z,24.06
2018-10-17T17:07:36.922Z,24.08
2018-10-17T17:09:57.208Z,23.91
2018-10-17T17:12:22.660Z,23.90
2018-10-17T17:14:48.112Z,23.40
2018-10-17T17:17:13.662Z,23.68
2018-10-17T17:19:50.666Z,23.36
2018-10-17T17:22:10.074Z,23.09
2018-10-17T17:24:35.535Z,23.12
2018-10-17T17:27:00.978Z,23.14
2018-10-17T17:29:45.511Z,23.26
2018-10-17T17:32:25.185Z,22.84
2018-10-17T17:34:53.395Z,22.80
2018-10-17T17:37:12.975Z,22.62
2018-10-17T17:39:53.075Z,22.74
2018-10-17T17:42:09.494Z,22.49
2018-10-17T17:44:34.910Z,22.65
2018-10-17T17:47:00.322Z,22.71
2018-10-17T17:49:25.802Z,22.63
2018-10-17T17:52:02.843Z,22.37
2018-10-17T17:57:10.461Z,22.51
2018-10-17T17:59:35.902Z,22.65
2018-10-17T18:04:37.692Z,22.21
2018-10-17T18:09:47.225Z,21.97
2018-10-17T18:14:44.829Z,22.05
2018-10-17T18:17:10.312Z,22.11
2018-10-17T18:19:35.761Z,21.58
2018-10-17T18:22:15.336Z,21.76
2018-10-17T18:24:32.411Z,21.47
2018-10-17T18:27:16.880Z,21.30
2018-10-17T18:29:42.359Z,21.02
2018-10-17T18:32:07.856Z,21.07
2018-10-17T18:34:33.312Z,21.52
2018-10-17T18:37:32.346Z,21.55
2018-10-17T18:39:48.992Z,21.28
2018-10-17T18:42:14.422Z,20.96
2018-10-17T18:44:39.890Z,21.19
2018-10-17T18:47:05.398Z,20.92
2018-10-17T18:49:30.840Z,20.18
2018-10-17T18:51:56.272Z,20.32
2018-10-17T18:54:21.774Z,20.82
2018-10-17T18:56:47.238Z,20.91
2018-10-17T18:59:12.656Z,20.52
2018-10-17T19:01:38.142Z,20.02
2018-10-17T19:04:14.982Z,20.36
2018-10-17T19:06:45.926Z,20.47
2018-10-17T19:09:28.222Z,20.40
2018-10-17T19:11:53.700Z,20.38
2018-10-17T19:14:19.153Z,20.35
2018-10-17T19:16:44.681Z,20.44
2018-10-17T19:21:46.120Z,20.24
2018-10-17T19:24:11.577Z,20.25
2018-10-17T19:26:37.019Z,19.84
2018-10-17T19:29:02.495Z,19.72
2018-10-17T19:31:27.942Z,19.79
2018-10-17T19:33:53.446Z,19.75
2018-10-17T19:36:19.035Z,20.00
2018-10-17T19:38:44.492Z,19.48
2018-10-17T19:41:09.959Z,19.46
2018-10-17T19:43:35.479Z,18.92
2018-10-17T19:46:14.802Z,19.00
2018-10-17T19:51:12.336Z,19.64
2018-10-17T19:53:37.757Z,19.29
2018-10-17T19:56:03.339Z,19.36
2018-10-17T19:58:40.456Z,19.42
2018-10-17T20:01:05.934Z,19.44
2018-10-17T20:03:31.440Z,19.58
2018-10-17T20:05:56.929Z,19.44
2018-10-17T20:08:22.380Z,19.37
2018-10-17T20:10:47.797Z,19.54
2018-10-17T20:13:13.213Z,19.36
2018-10-17T20:15:38.733Z,19.42
2018-10-17T20:18:34.676Z,19.32
2018-10-17T20:20:54.404Z,18.89
2018-10-17T20:23:50.358Z,19.11
2018-10-17T20:26:10.311Z,18.99
2018-10-17T20:28:35.733Z,19.11
2018-10-17T20:31:12.700Z,19.18
2018-10-17T20:33:32.825Z,19.00
2018-10-17T20:35:58.429Z,18.16
2018-10-17T20:38:23.862Z,18.20
2018-10-17T20:40:49.289Z,17.77
2018-10-17T20:43:14.757Z,17.78
2018-10-17T20:45:40.183Z,17.96
2018-10-17T20:48:17.319Z,17.41
2018-10-17T20:53:12.895Z,18.32
2018-10-17T20:58:15.238Z,18.29
2018-10-17T21:00:40.604Z,18.33
2018-10-17T21:03:06.098Z,18.44
2018-10-17T21:08:07.765Z,17.61
2018-10-17T21:10:33.105Z,17.73
2018-10-17T21:12:58.533Z,18.00
2018-10-17T21:15:23.988Z,18.33
2018-10-17T21:17:49.532Z,18.16
2018-10-17T21:20:14.979Z,17.97
2018-10-17T21:22:40.372Z,18.26
2018-10-17T21:25:05.793Z,18.06
2018-10-17T21:27:42.690Z,17.72
2018-10-17T21:30:14.025Z,17.98
2018-10-17T21:32:34.250Z,17.80
2018-10-17T21:34:59.752Z,17.85
2018-10-17T21:40:02.839Z,18.27
2018-10-17T21:45:08.177Z,17.99
2018-10-17T21:53:00.153Z,17.74
2018-10-17T21:55:19.572Z,17.76
2018-10-17T21:57:45.057Z,17.51
2018-10-17T22:02:46.931Z,17.38
2018-10-17T22:05:31.319Z,17.41
2018-10-17T22:08:10.992Z,17.61
2018-10-17T22:10:39.703Z,17.85
2018-10-17T22:15:31.109Z,17.79
2018-10-17T22:17:56.520Z,17.29
2018-10-17T22:20:21.970Z,17.47
2018-10-17T22:22:47.444Z,17.56
2018-10-17T22:25:12.967Z,17.36
2018-10-17T22:27:54.507Z,17.62
2018-10-17T22:30:28.957Z,17.17
2018-10-17T22:32:54.402Z,16.99
2018-10-17T22:35:19.878Z,17.22
2018-10-17T22:37:45.322Z,16.88
2018-10-17T22:40:10.793Z,16.64
2018-10-17T22:42:36.273Z,16.31
2018-10-17T22:45:01.706Z,16.22
2018-10-17T22:47:27.102Z,16.23
2018-10-17T22:49:52.554Z,16.07
2018-10-17T22:52:38.181Z,15.81
2018-10-17T22:57:32.742Z,15.11
2018-10-17T22:59:58.196Z,15.58
2018-10-17T23:05:01.182Z,15.93
2018-10-17T23:07:26.648Z,16.31
2018-10-17T23:09:52.137Z,16.41
2018-10-17T23:12:17.546Z,16.38
2018-10-17T23:14:54.496Z,16.14
2018-10-17T23:17:14.344Z,16.50
2018-10-17T23:19:39.773Z,16.52
2018-10-17T23:24:36.514Z,15.93
2018-10-17T23:27:01.949Z,15.71
2018-10-17T23:29:27.710Z,15.47
2018-10-17T23:31:53.410Z,15.89
2018-10-17T23:34:18.761Z,15.77
2018-10-17T23:36:44.215Z,16.05
2018-10-17T23:42:02.866Z,16.05
2018-10-17T23:44:23.225Z,15.90
2018-10-17T23:46:48.655Z,16.07
2018-10-17T23:49:14.151Z,15.71
2018-10-17T23:51:39.568Z,15.88
2018-10-17T23:54:05.060Z,15.93
2018-10-17T23:59:08.051Z,16.13
